Time;durP1;ratioP1;P1;durP2;ratioP2;P2;SDS_P1;SDS_P2;PMS_P1;PMS_P2;Temp;Humidity;BMP_temperature;BMP_pressure;BME280_temperature;BME280_humidity;BME280_pressure;Samples;Min_cycle;Max_cycle;Signal;HPM_P1;HPM_P2
2022/12/23 00:02:05;;;;;;;12.40;5.30;;;;;;;6.62;93.12;100210.59;6110595;28;20597;-66
2022/12/23 00:05:26;;;;;;;7.53;6.27;;;;;;;6.62;93.26;100210.59;6113086;28;20236;-66
2022/12/23 00:08:47;;;;;;;8.53;5.57;;;;;;;6.56;92.81;100203.94;6116306;28;20653;-66
2022/12/23 00:15:46;;;;;;;11.07;6.30;;;;;;;6.87;92.12;100216.47;6112741;28;20616;-66
2022/12/23 00:19:08;;;;;;;10.23;8.20;;;;;;;6.85;92.25;100196.97;6113932;28;20240;-66
2022/12/23 00:26:13;;;;;;;8.53;7.30;;;;;;;6.91;91.90;100196.47;6122202;28;20225;-66
2022/12/23 00:29:34;;;;;;;9.87;5.93;;;;;;;6.78;92.26;100193.09;6108226;28;20232;-66
2022/12/23 00:32:55;;;;;;;9.90;6.10;;;;;;;6.70;93.03;100202.75;6112450;28;20330;-66
2022/12/23 00:36:19;;;;;;;8.13;5.40;;;;;;;6.72;92.97;100204.34;6117522;28;20790;-65
2022/12/23 00:43:18;;;;;;;10.73;8.00;;;;;;;6.59;93.25;100213.53;6107142;28;20232;-66
2022/12/23 00:46:39;;;;;;;8.23;7.10;;;;;;;6.62;93.44;100211.44;6116275;28;20247;-66
2022/12/23 00:49:59;;;;;;;13.27;8.10;;;;;;;6.54;93.40;100215.72;6116306;28;20236;-65
2022/12/23 00:53:22;;;;;;;14.10;8.30;;;;;;;6.63;93.47;100214.97;6119384;28;20316;-66
2022/12/23 00:56:43;;;;;;;10.93;8.00;;;;;;;6.73;92.82;100213.22;6113682;28;20232;-66
2022/12/23 01:00:05;;;;;;;16.60;7.10;;;;;;;6.84;92.95;100222.06;6112166;28;20231;-66
2022/12/23 01:07:05;;;;;;;9.33;7.17;;;;;;;6.99;92.11;100214.56;6116792;28;20315;-65
2022/12/23 01:10:27;;;;;;;9.10;6.47;;;;;;;6.90;92.68;100210.84;6119409;28;20295;-65
2022/12/23 01:13:48;;;;;;;11.77;6.77;;;;;;;6.80;92.66;100201.88;6116825;28;20617;-66
2022/12/23 01:17:09;;;;;;;7.80;6.60;;;;;;;6.90;92.83;100208.19;6115268;28;20847;-67
2022/12/23 01:20:30;;;;;;;13.30;8.37;;;;;;;6.86;92.65;100197.84;6123574;28;20236;-67
2022/12/23 01:23:51;;;;;;;12.03;7.70;;;;;;;6.87;93.24;100195.03;6115267;28;20228;-66
2022/12/23 01:27:13;;;;;;;9.30;6.73;;;;;;;6.66;93.85;100207.53;6123412;28;20239;-65
2022/12/23 01:30:34;;;;;;;13.17;8.27;;;;;;;6.78;93.71;100203.00;6094257;28;20859;-65
2022/12/23 01:33:55;;;;;;;13.87;7.77;;;;;;;6.83;92.96;100211.47;6106413;28;20847;-66
2022/12/23 01:37:16;;;;;;;13.23;8.33;;;;;;;6.88;93.58;100201.25;6116370;28;20243;-66
2022/12/23 01:40:38;;;;;;;12.30;8.03;;;;;;;6.86;93.65;100201.34;6113971;28;20334;-66
2022/12/23 01:43:59;;;;;;;11.30;9.07;;;;;;;6.65;93.79;100205.00;6104032;28;20228;-66
2022/12/23 01:47:27;;;;;;;15.60;9.17;;;;;;;6.82;94.04;100210.63;6120412;28;20246;-66
2022/12/23 01:50:53;;;;;;;9.03;7.43;;;;;;;6.74;93.61;100209.59;6114688;28;20235;-66
2022/12/23 01:54:14;;;;;;;7.77;6.23;;;;;;;6.67;94.38;100211.06;6116166;28;20269;-65
2022/12/23 01:57:38;;;;;;;9.40;6.77;;;;;;;6.61;93.59;100206.22;6116105;28;20236;-65
2022/12/23 02:04:43;;;;;;;7.53;6.57;;;;;;;6.51;95.06;100213.34;6117992;28;20238;-65
2022/12/23 02:12:07;;;;;;;11.10;7.43;;;;;;;6.74;94.73;100207.75;6122462;28;20243;-66
2022/12/23 02:19:22;;;;;;;12.03;8.20;;;;;;;6.80;94.00;100209.06;6108284;28;20236;-66
2022/12/23 02:23:03;;;;;;;10.63;7.43;;;;;;;6.54;94.50;100208.56;6117041;28;20243;-66
2022/12/23 02:26:58;;;;;;;11.60;7.23;;;;;;;6.74;94.49;100210.41;6111854;28;20239;-66
2022/12/23 02:30:42;;;;;;;12.93;7.87;;;;;;;6.84;94.38;100199.81;6078718;28;20236;-66
2022/12/23 02:34:13;;;;;;;12.30;8.60;;;;;;;6.88;94.32;100196.75;6118076;28;20247;-66
2022/12/23 02:37:37;;;;;;;9.67;7.50;;;;;;;6.93;93.66;100205.22;6120029;28;20274;-65
2022/12/23 02:41:08;;;;;;;11.03;8.43;;;;;;;6.72;95.02;100211.53;6112035;28;20232;-66
2022/12/23 02:44:33;;;;;;;14.90;9.20;;;;;;;6.79;95.29;100218.06;6106840;28;20327;-66
2022/12/23 02:47:59;;;;;;;8.47;6.23;;;;;;;6.90;94.65;100223.38;6105336;28;20237;-66
2022/12/23 02:51:25;;;;;;;13.37;7.40;;;;;;;6.89;94.32;100230.56;6118767;28;20235;-65
2022/12/23 02:54:51;;;;;;;11.17;8.10;;;;;;;6.72;94.99;100228.44;6114660;28;20609;-67
2022/12/23 02:58:16;;;;;;;16.87;9.00;;;;;;;6.79;95.50;100229.66;6109230;28;20244;-66
2022/12/23 03:01:38;;;;;;;9.87;7.87;;;;;;;6.71;95.33;100236.63;6121229;28;20244;-65
2022/12/23 03:05:00;;;;;;;12.70;8.07;;;;;;;6.67;94.88;100246.75;6122839;28;20231;-67
2022/12/23 03:08:25;;;;;;;13.27;7.43;;;;;;;6.60;95.59;100242.00;6115329;28;20231;-66
2022/12/23 03:11:56;;;;;;;11.63;7.53;;;;;;;6.68;95.53;100237.72;6123238;28;20244;-66
2022/12/23 03:15:29;;;;;;;12.90;8.57;;;;;;;6.68;95.27;100244.88;6120466;28;20231;-65
2022/12/23 03:19:09;;;;;;;10.47;7.63;;;;;;;6.66;95.69;100239.66;6113177;28;20565;-66
2022/12/23 03:22:38;;;;;;;12.13;8.93;;;;;;;6.67;95.67;100246.75;6108123;28;20617;-66
2022/12/23 03:26:04;;;;;;;13.17;9.53;;;;;;;6.53;95.75;100246.19;6119050;28;20257;-65
2022/12/23 03:29:32;;;;;;;9.43;7.80;;;;;;;6.58;96.10;100252.00;6111324;28;20314;-66
2022/12/23 03:32:56;;;;;;;13.47;8.40;;;;;;;6.67;96.47;100253.91;6104422;28;20231;-66
2022/12/23 03:36:21;;;;;;;13.97;8.17;;;;;;;6.66;96.27;100258.41;6120323;28;20736;-66
2022/12/23 03:39:47;;;;;;;12.37;8.27;;;;;;;6.62;96.42;100254.28;6118843;28;20235;-66
2022/12/23 03:43:15;;;;;;;10.47;8.50;;;;;;;6.61;96.76;100257.97;6109570;28;21694;-65
2022/12/23 03:46:41;;;;;;;9.63;7.77;;;;;;;6.72;96.80;100259.72;6114161;28;20232;-66
2022/12/23 03:50:07;;;;;;;12.00;8.90;;;;;;;6.87;96.34;100262.00;6117500;28;20239;-66
2022/12/23 03:53:32;;;;;;;11.13;7.83;;;;;;;6.74;97.02;100266.66;6109782;28;20287;-66
2022/12/23 03:56:58;;;;;;;11.10;7.47;;;;;;;6.92;96.84;100264.31;6118495;28;20232;-66
2022/12/23 04:00:19;;;;;;;14.43;9.60;;;;;;;6.99;96.85;100252.06;6106272;28;20638;-65
2022/12/23 04:03:52;;;;;;;9.23;6.87;;;;;;;6.98;96.43;100253.06;6105120;28;20602;-66
2022/12/23 04:07:17;;;;;;;11.83;9.00;;;;;;;7.01;95.96;100255.47;6115861;28;20601;-66
2022/12/23 04:10:38;;;;;;;10.63;8.53;;;;;;;7.04;96.50;100264.13;6111667;28;20247;-65
2022/12/23 04:14:00;;;;;;;11.47;8.60;;;;;;;6.99;96.52;100271.69;6114233;28;20323;-65
2022/12/23 04:17:21;;;;;;;13.57;8.63;;;;;;;7.05;96.89;100271.16;6109631;28;20232;-66
2022/12/23 04:20:42;;;;;;;13.73;9.23;;;;;;;6.91;98.09;100281.34;6111093;28;20251;-65
2022/12/23 04:24:03;;;;;;;13.37;10.77;;;;;;;6.83;99.42;100275.78;6118593;28;20228;-66
2022/12/23 04:27:23;;;;;;;16.53;11.33;;;;;;;7.00;98.70;100268.03;6113973;28;20271;-65
2022/12/23 04:30:46;;;;;;;21.97;12.47;;;;;;;7.04;99.15;100268.63;6112566;28;20310;-66
2022/12/23 04:34:07;;;;;;;15.80;11.43;;;;;;;7.06;99.17;100275.56;6118078;28;20350;-66
2022/12/23 04:37:27;;;;;;;17.40;13.23;;;;;;;7.17;99.06;100280.03;6116511;28;20337;-65
2022/12/23 04:40:48;;;;;;;17.63;11.10;;;;;;;7.13;99.33;100286.63;6111443;28;20247;-66
2022/12/23 04:44:09;;;;;;;23.80;14.33;;;;;;;7.04;99.14;100282.88;6114415;28;20240;-66
2022/12/23 04:47:31;;;;;;;22.03;14.17;;;;;;;6.87;100.00;100279.91;6107361;28;20268;-65
2022/12/23 04:50:52;;;;;;;22.43;14.23;;;;;;;6.87;100.00;100279.91;6080266;28;20506;-66
2022/12/23 04:54:13;;;;;;;19.77;13.43;;;;;;;6.90;100.00;100274.28;6112916;28;20240;-66
2022/12/23 04:57:34;;;;;;;18.87;13.53;;;;;;;6.89;100.00;100276.13;6107165;28;20236;-65
2022/12/23 05:01:02;;;;;;;19.63;14.40;;;;;;;6.89;100.00;100277.94;6118206;28;20252;-66
2022/12/23 05:04:24;;;;;;;22.67;13.40;;;;;;;6.79;100.00;100279.69;6106647;28;20243;-66
2022/12/23 05:07:45;;;;;;;19.77;11.93;;;;;;;6.76;100.00;100277.28;6118933;28;20545;-65
2022/12/23 05:11:06;;;;;;;19.90;13.77;;;;;;;6.81;100.00;100296.47;6116850;28;20239;-66
2022/12/23 05:14:27;;;;;;;21.10;13.13;;;;;;;6.86;100.00;100296.97;6113321;28;20247;-65
2022/12/23 05:17:47;;;;;;;14.60;11.83;;;;;;;6.98;100.00;100309.34;6115254;28;20252;-67
2022/12/23 05:21:09;;;;;;;13.47;11.30;;;;;;;7.06;100.00;100301.50;6117469;28;20251;-66
2022/12/23 05:24:30;;;;;;;16.07;10.40;;;;;;;7.12;100.00;100309.03;6121435;28;20239;-67
2022/12/23 05:27:51;;;;;;;16.03;10.90;;;;;;;7.08;100.00;100300.41;6116056;28;20561;-65
2022/12/23 05:31:13;;;;;;;15.83;10.77;;;;;;;7.04;100.00;100306.13;6118831;28;20244;-67
2022/12/23 05:34:33;;;;;;;13.33;9.47;;;;;;;7.00;100.00;100305.56;6115236;28;20231;-65
2022/12/23 05:37:56;;;;;;;21.43;12.00;;;;;;;7.12;99.97;100303.66;6115461;28;20241;-65
2022/12/23 05:41:17;;;;;;;16.67;10.00;;;;;;;6.95;100.00;100313.13;6111648;28;20235;-65
2022/12/23 05:44:38;;;;;;;16.43;11.43;;;;;;;6.91;100.00;100317.03;6105108;28;20227;-65
2022/12/23 05:47:59;;;;;;;15.63;11.37;;;;;;;6.89;100.00;100328.84;6112555;28;20239;-66
2022/12/23 05:51:19;;;;;;;18.13;12.80;;;;;;;6.87;100.00;100331.66;6110787;28;20621;-65
2022/12/23 05:54:42;;;;;;;16.90;12.07;;;;;;;6.86;100.00;100339.81;6115457;28;20244;-65
2022/12/23 05:58:03;;;;;;;21.83;11.97;;;;;;;6.85;100.00;100335.44;6116847;28;20263;-66
2022/12/23 06:01:24;;;;;;;23.77;14.63;;;;;;;6.87;100.00;100338.84;6103229;28;20235;-66
2022/12/23 06:04:45;;;;;;;17.17;10.27;;;;;;;6.75;100.00;100338.03;6112329;28;20523;-66
2022/12/23 06:08:06;;;;;;;17.67;12.07;;;;;;;6.88;100.00;100341.41;6122730;28;20318;-65
2022/12/23 06:11:28;;;;;;;21.83;11.23;;;;;;;6.91;100.00;100338.47;6109490;28;20701;-65
2022/12/23 06:14:49;;;;;;;18.40;11.80;;;;;;;7.02;100.00;100345.63;6109663;28;20316;-66
2022/12/23 06:18:10;;;;;;;19.00;12.73;;;;;;;6.99;99.72;100344.03;6108081;28;20235;-66
2022/12/23 06:21:31;;;;;;;14.00;9.57;;;;;;;6.82;100.00;100347.25;6112286;28;20235;-66
2022/12/23 06:24:52;;;;;;;18.33;10.70;;;;;;;6.86;100.00;100345.19;6113269;28;20509;-66
2022/12/23 06:28:14;;;;;;;18.27;10.30;;;;;;;6.75;100.00;100362.13;6113547;28;20236;-66
2022/12/23 06:31:35;;;;;;;17.53;12.10;;;;;;;6.89;100.00;100353.81;6117433;28;20224;-66
2022/12/23 06:34:56;;;;;;;19.23;11.23;;;;;;;6.93;99.86;100359.75;6119446;28;20528;-66
2022/12/23 06:38:17;;;;;;;14.97;11.27;;;;;;;6.95;99.81;100363.16;6119425;28;20263;-66
2022/12/23 06:41:38;;;;;;;13.23;10.20;;;;;;;6.69;100.00;100351.91;6115241;28;20225;-66
2022/12/23 06:45:00;;;;;;;15.23;10.50;;;;;;;6.63;100.00;100356.91;6115486;28;20231;-66
2022/12/23 06:48:20;;;;;;;13.37;10.83;;;;;;;6.51;100.00;100349.88;6114612;28;20647;-66
2022/12/23 06:51:41;;;;;;;12.63;9.80;;;;;;;6.61;100.00;100351.69;6108814;28;20263;-66
2022/12/23 06:55:02;;;;;;;15.50;10.60;;;;;;;6.76;100.00;100363.81;6114892;28;20649;-66
2022/12/23 06:58:23;;;;;;;16.03;11.03;;;;;;;6.88;100.00;100375.38;6115092;28;20235;-66
2022/12/23 07:01:45;;;;;;;14.10;11.50;;;;;;;6.84;99.49;100355.19;6113951;28;20244;-66
2022/12/23 07:05:06;;;;;;;15.67;10.30;;;;;;;6.83;99.96;100365.03;6110013;28;20235;-66
2022/12/23 07:08:27;;;;;;;12.27;9.57;;;;;;;6.87;99.02;100365.63;6114908;28;20296;-66
2022/12/23 07:11:47;;;;;;;15.60;10.57;;;;;;;6.93;99.29;100373.16;6115585;28;20235;-65
2022/12/23 07:15:09;;;;;;;10.23;9.30;;;;;;;7.01;99.13;100389.44;6115869;28;20506;-66
2022/12/23 07:18:32;;;;;;;15.73;10.07;;;;;;;7.04;98.87;100394.56;6115321;28;20236;-66
2022/12/23 07:21:53;;;;;;;13.30;8.30;;;;;;;6.83;98.36;100407.03;6115592;28;20872;-66
2022/12/23 07:25:14;;;;;;;20.73;9.43;;;;;;;6.81;99.12;100399.13;6118936;28;20235;-65
2022/12/23 07:28:35;;;;;;;17.63;12.47;;;;;;;6.93;99.50;100402.63;6111648;28;20665;-66
2022/12/23 07:31:56;;;;;;;12.23;9.00;;;;;;;6.97;99.08;100399.56;6117735;28;20231;-66
2022/12/23 07:35:19;;;;;;;12.83;9.13;;;;;;;7.04;98.45;100407.97;6119227;28;20247;-66
2022/12/23 07:38:40;;;;;;;17.73;10.70;;;;;;;7.11;98.40;100411.88;6115179;28;20700;-65
2022/12/23 07:42:00;;;;;;;14.80;9.80;;;;;;;6.98;98.96;100420.06;6106199;28;20241;-66
2022/12/23 07:45:23;;;;;;;16.87;9.13;;;;;;;7.02;98.44;100436.72;6112378;28;20236;-66
2022/12/23 07:48:44;;;;;;;19.47;10.37;;;;;;;6.90;98.84;100437.72;6112762;28;20244;-65
2022/12/23 07:52:06;;;;;;;15.27;9.03;;;;;;;7.05;98.74;100436.50;6111873;28;20236;-66
2022/12/23 07:55:27;;;;;;;13.50;8.97;;;;;;;7.04;98.30;100437.44;6111301;28;20251;-66
2022/12/23 07:58:49;;;;;;;16.20;10.67;;;;;;;7.02;98.96;100434.91;6106715;28;20812;-66
2022/12/23 08:02:10;;;;;;;18.97;9.63;;;;;;;7.00;98.40;100433.31;6115980;28;20235;-66
2022/12/23 08:05:31;;;;;;;13.57;10.17;;;;;;;7.04;98.92;100434.78;6114040;28;20619;-65
2022/12/23 08:08:53;;;;;;;16.30;9.37;;;;;;;7.05;98.36;100425.78;6117129;28;20275;-66
2022/12/23 08:12:15;;;;;;;19.77;11.60;;;;;;;7.12;98.63;100433.16;6118869;28;20240;-66
2022/12/23 08:15:35;;;;;;;14.17;9.87;;;;;;;7.06;98.71;100436.34;6111462;28;20224;-66
2022/12/23 08:18:56;;;;;;;17.00;8.03;;;;;;;6.96;99.34;100440.75;6115599;28;20327;-66
2022/12/23 08:22:17;;;;;;;13.33;10.57;;;;;;;6.92;99.35;100444.66;6116513;28;20240;-66
2022/12/23 08:25:39;;;;;;;12.90;8.73;;;;;;;7.15;99.18;100448.97;6114066;28;20236;-65
2022/12/23 08:29:00;;;;;;;11.10;7.53;;;;;;;7.03;99.60;100457.19;6111944;28;20610;-66
2022/12/23 08:32:21;;;;;;;12.67;8.03;;;;;;;6.92;99.91;100466.09;6115760;28;20231;-67
2022/12/23 08:35:42;;;;;;;14.07;8.80;;;;;;;6.93;100.00;100473.16;6116947;28;20248;-66
2022/12/23 08:39:05;;;;;;;13.57;8.93;;;;;;;6.99;99.70;100477.16;6120613;28;20669;-66
2022/12/23 08:42:27;;;;;;;13.47;8.90;;;;;;;7.05;99.68;100469.47;6111652;28;20236;-66
2022/12/23 08:45:48;;;;;;;15.40;9.53;;;;;;;6.94;99.69;100474.88;6108092;28;20237;-66
2022/12/23 08:49:10;;;;;;;12.83;9.43;;;;;;;6.86;100.00;100471.91;6108330;28;20884;-65
2022/12/23 08:52:32;;;;;;;14.73;10.43;;;;;;;6.55;100.00;100472.66;6106222;28;20507;-66
2022/12/23 08:55:53;;;;;;;19.13;10.53;;;;;;;6.38;100.00;100481.19;6097997;28;20247;-66
2022/12/23 08:59:17;;;;;;;14.47;10.33;;;;;;;6.49;100.00;100491.88;6115070;28;20232;-66
2022/12/23 09:02:38;;;;;;;13.93;10.83;;;;;;;6.39;100.00;100505.13;6109910;28;20247;-67
2022/12/23 09:05:59;;;;;;;15.00;11.17;;;;;;;6.43;100.00;100511.97;6106598;28;20236;-66
2022/12/23 09:09:20;;;;;;;13.23;9.47;;;;;;;6.42;100.00;100512.09;6105534;28;20227;-67
2022/12/23 09:12:41;;;;;;;19.93;10.47;;;;;;;6.36;100.00;100517.91;6109967;28;20281;-65
2022/12/23 09:16:03;;;;;;;17.77;13.90;;;;;;;6.31;100.00;100518.25;6110305;28;20257;-66
2022/12/23 09:19:24;;;;;;;14.87;11.50;;;;;;;6.24;100.00;100508.13;6110421;28;20232;-66
2022/12/23 09:22:45;;;;;;;24.40;13.10;;;;;;;6.16;100.00;100502.53;6116525;28;20240;-65
2022/12/23 09:26:06;;;;;;;16.10;9.70;;;;;;;6.35;100.00;100506.34;6110991;28;20268;-66
2022/12/23 09:29:27;;;;;;;16.13;8.37;;;;;;;6.42;100.00;100509.41;6117751;28;20228;-65
2022/12/23 09:32:49;;;;;;;13.87;10.70;;;;;;;6.34;100.00;100507.31;6112696;28;20239;-67
2022/12/23 09:36:10;;;;;;;13.90;9.90;;;;;;;6.48;100.00;100500.91;6112528;28;20232;-66
2022/12/23 09:39:31;;;;;;;14.93;10.17;;;;;;;6.34;100.00;100512.66;6115563;28;20255;-65
2022/12/23 09:43:03;;;;;;;20.60;10.87;;;;;;;6.65;100.00;100505.78;6104066;28;20268;-66
2022/12/23 09:46:26;;;;;;;19.87;13.07;;;;;;;6.88;100.00;100518.22;6110206;28;20224;-66
2022/12/23 09:49:52;;;;;;;18.60;9.63;;;;;;;6.99;100.00;100525.38;6115306;28;20236;-65
2022/12/23 09:53:15;;;;;;;18.13;9.07;;;;;;;7.12;99.82;100524.28;6115791;28;20581;-66
2022/12/23 09:56:45;;;;;;;13.03;10.50;;;;;;;7.20;99.69;100524.53;6115577;28;20280;-65
2022/12/23 10:00:12;;;;;;;14.37;9.83;;;;;;;7.22;98.49;100516.34;6109433;28;20236;-65
2022/12/23 10:03:44;;;;;;;18.50;10.87;;;;;;;7.16;98.35;100515.03;6116616;28;20240;-65
2022/12/23 10:07:22;;;;;;;12.33;7.97;;;;;;;6.99;98.85;100510.16;6120855;28;20236;-66
2022/12/23 10:10:46;;;;;;;14.20;9.63;;;;;;;7.08;98.53;100497.84;6115343;28;20615;-65
2022/12/23 10:14:17;;;;;;;13.10;8.73;;;;;;;7.37;98.45;100496.34;6119541;28;20236;-66
2022/12/23 10:17:40;;;;;;;16.30;8.93;;;;;;;7.28;97.65;100501.63;6110337;28;20244;-65
2022/12/23 10:21:06;;;;;;;15.63;10.47;;;;;;;6.95;98.69;100510.53;6119448;28;20330;-67
2022/12/23 10:24:36;;;;;;;13.43;8.50;;;;;;;7.03;99.10;100510.78;6121699;28;20236;-66
2022/12/23 10:27:57;;;;;;;13.93;10.60;;;;;;;7.04;98.63;100507.13;6115892;28;20243;-66
2022/12/23 10:31:21;;;;;;;14.97;9.23;;;;;;;7.15;98.26;100515.16;6111745;28;20228;-66
2022/12/23 10:34:49;;;;;;;12.23;9.17;;;;;;;7.04;98.36;100515.16;6121851;28;20243;-66
2022/12/23 10:38:24;;;;;;;14.33;7.47;;;;;;;7.10;98.59;100512.84;6118911;28;20257;-65
2022/12/23 10:41:55;;;;;;;16.47;9.20;;;;;;;7.18;97.95;100514.91;6115769;28;20354;-66
2022/12/23 10:45:28;;;;;;;15.50;11.33;;;;;;;7.12;97.94;100512.72;6111818;28;20236;-67
2022/12/23 10:48:59;;;;;;;13.73;9.10;;;;;;;7.02;98.71;100507.25;6120869;28;20232;-65
2022/12/23 10:52:23;;;;;;;13.87;8.40;;;;;;;7.12;97.75;100502.00;6117520;28;20334;-65
2022/12/23 10:55:44;;;;;;;13.90;9.70;;;;;;;7.28;97.71;100498.94;6119163;28;20248;-66
2022/12/23 10:59:12;;;;;;;12.93;8.13;;;;;;;7.28;97.17;100501.63;6111413;28;20236;-66
2022/12/23 11:02:46;;;;;;;15.37;8.90;;;;;;;7.39;96.39;100497.06;6109430;28;20233;-66
2022/12/23 11:06:09;;;;;;;14.87;8.37;;;;;;;7.10;97.05;100503.94;6112359;28;20248;-67
2022/12/23 11:09:38;;;;;;;11.47;7.67;;;;;;;6.95;97.34;100505.16;6111674;28;20228;-64
2022/12/23 11:13:00;;;;;;;10.70;7.20;;;;;;;7.00;98.42;100514.56;6113930;28;20255;-66
2022/12/23 11:16:27;;;;;;;10.97;8.43;;;;;;;6.84;98.23;100518.59;6108995;28;20244;-66
2022/12/23 11:20:05;;;;;;;9.77;7.20;;;;;;;6.95;98.85;100521.25;6118699;28;20227;-65
2022/12/23 11:23:28;;;;;;;10.40;6.50;;;;;;;7.07;97.72;100510.41;6112630;28;20265;-66
2022/12/23 11:26:58;;;;;;;15.43;8.90;;;;;;;6.99;98.12;100517.34;6114489;28;20674;-65
2022/12/23 11:30:19;;;;;;;12.03;8.43;;;;;;;6.83;99.10;100520.41;6117752;28;20231;-66
2022/12/23 11:33:49;;;;;;;13.63;8.67;;;;;;;6.96;99.43;100522.97;6118846;28;20236;-65
2022/12/23 11:37:24;;;;;;;11.07;7.70;;;;;;;7.16;97.82;100508.81;6126131;28;20275;-66
2022/12/23 11:40:46;;;;;;;11.83;7.10;;;;;;;7.05;97.34;100503.50;6111083;28;20547;-66
2022/12/23 11:44:21;;;;;;;9.40;5.87;;;;;;;6.99;97.89;100506.63;6116538;28;20228;-65
2022/12/23 11:47:43;;;;;;;9.83;6.37;;;;;;;7.20;97.65;100496.88;6121182;28;20243;-66
2022/12/23 11:51:05;;;;;;;12.00;7.97;;;;;;;7.33;96.32;100502.09;6115908;28;20236;-66
2022/12/23 11:54:27;;;;;;;10.30;7.43;;;;;;;7.48;95.73;100492.78;6112971;28;20539;-67
2022/12/23 11:57:49;;;;;;;12.93;6.77;;;;;;;7.63;95.08;100494.22;6110494;28;20638;-65
2022/12/23 12:01:17;;;;;;;9.57;7.63;;;;;;;7.52;95.57;100488.88;6106740;28;20309;-66
2022/12/23 12:04:40;;;;;;;9.17;7.83;;;;;;;7.28;96.39;100492.59;6109879;28;20323;-66
2022/12/23 12:08:06;;;;;;;10.37;7.40;;;;;;;7.35;96.14;100502.81;6114639;28;20244;-66
2022/12/23 12:11:32;;;;;;;15.67;8.00;;;;;;;7.35;97.26;100490.25;6108803;28;20244;-66
2022/12/23 12:14:56;;;;;;;12.60;8.57;;;;;;;7.32;97.13;100490.53;6113616;28;20221;-66
2022/12/23 12:18:19;;;;;;;12.53;8.07;;;;;;;7.02;97.76;100482.28;6113137;28;20574;-65
2022/12/23 12:21:40;;;;;;;11.43;8.33;;;;;;;7.19;97.51;100471.06;6108980;28;20228;-66
2022/12/23 12:25:11;;;;;;;11.07;8.60;;;;;;;7.38;96.95;100454.31;6106544;28;20420;-66
2022/12/23 12:28:38;;;;;;;10.43;7.47;;;;;;;7.63;96.74;100454.84;6111064;28;20227;-65
2022/12/23 12:32:01;;;;;;;10.53;6.40;;;;;;;7.83;95.19;100453.16;6116173;28;20235;-66
2022/12/23 12:35:31;;;;;;;13.07;8.37;;;;;;;7.85;93.72;100438.63;6108203;28;20260;-67
2022/12/23 12:38:54;;;;;;;14.47;10.13;;;;;;;7.99;93.80;100435.63;6111733;28;20327;-66
2022/12/23 12:42:24;;;;;;;14.30;8.27;;;;;;;8.06;94.11;100449.38;6109499;28;20244;-66
2022/12/23 12:45:51;;;;;;;12.53;8.57;;;;;;;8.29;93.37;100434.00;6110219;28;20235;-66
2022/12/23 12:49:19;;;;;;;11.33;8.27;;;;;;;8.32;91.63;100434.63;6112796;28;20335;-65
2022/12/23 12:52:42;;;;;;;12.63;8.07;;;;;;;8.21;91.89;100442.69;6110762;28;20232;-67
2022/12/23 12:56:10;;;;;;;16.30;11.30;;;;;;;8.12;92.63;100445.31;6099202;28;21854;-64
2022/12/23 12:59:34;;;;;;;12.03;8.67;;;;;;;8.05;92.82;100435.09;6114544;28;20227;-65
2022/12/23 13:03:14;;;;;;;12.17;9.10;;;;;;;7.88;92.74;100449.13;6113142;28;20314;-65
2022/12/23 13:06:41;;;;;;;14.23;7.63;;;;;;;7.58;94.16;100445.47;6110511;28;20267;-66
2022/12/23 13:10:12;;;;;;;14.33;10.90;;;;;;;7.37;95.82;100440.03;6111273;28;20247;-65
2022/12/23 13:13:45;;;;;;;19.93;8.87;;;;;;;7.40;96.15;100449.69;6111618;28;20237;-66
2022/12/23 13:17:15;;;;;;;17.83;10.83;;;;;;;7.49;96.58;100457.78;6120300;28;20235;-66
2022/12/23 13:20:42;;;;;;;12.70;9.90;;;;;;;7.39;96.11;100462.22;6104460;28;20335;-66
2022/12/23 13:24:13;;;;;;;15.37;9.07;;;;;;;7.41;95.72;100456.72;6112127;28;20227;-67
2022/12/23 13:27:39;;;;;;;12.90;8.67;;;;;;;7.28;97.18;100447.00;6107950;28;20570;-65
2022/12/23 13:31:06;;;;;;;11.63;9.20;;;;;;;7.24;96.73;100442.88;6110436;28;20528;-66
2022/12/23 13:34:39;;;;;;;9.63;7.30;;;;;;;7.15;96.95;100432.06;6097862;28;20234;-66
2022/12/23 13:38:10;;;;;;;18.23;9.50;;;;;;;7.09;96.52;100433.41;6108092;28;20235;-66
2022/12/23 13:41:34;;;;;;;14.70;10.07;;;;;;;7.11;97.23;100433.31;6117239;28;20494;-65
2022/12/23 13:44:56;;;;;;;10.13;6.63;;;;;;;7.12;96.54;100435.84;6123887;28;20231;-64
2022/12/23 13:48:38;;;;;;;17.13;9.30;;;;;;;7.17;96.67;100440.84;6113673;28;20263;-65
2022/12/23 13:52:08;;;;;;;11.23;8.87;;;;;;;7.19;96.96;100444.25;6127694;28;20493;-65
2022/12/23 13:55:47;;;;;;;16.87;9.97;;;;;;;7.15;97.31;100440.94;6117302;28;20236;-64
2022/12/23 13:59:10;;;;;;;13.63;8.37;;;;;;;7.15;96.78;100435.59;6122002;28;20234;-65
2022/12/23 14:02:43;;;;;;;11.00;7.93;;;;;;;7.36;96.97;100449.09;6111214;28;20227;-64
2022/12/23 14:06:21;;;;;;;11.83;8.73;;;;;;;7.47;96.37;100450.88;6119668;28;20227;-66
2022/12/23 14:09:46;;;;;;;10.87;8.30;;;;;;;7.46;95.65;100433.06;6120456;28;20333;-66
2022/12/23 14:13:08;;;;;;;11.13;7.80;;;;;;;7.39;95.44;100432.72;6108181;28;20243;-66
2022/12/23 14:16:45;;;;;;;9.37;7.90;;;;;;;7.41;95.50;100437.94;6135114;28;20614;-66
2022/12/23 14:20:22;;;;;;;9.20;8.00;;;;;;;7.55;95.86;100424.28;6106789;28;20261;-67
2022/12/23 14:24:02;;;;;;;11.13;8.77;;;;;;;7.56;95.58;100412.53;6118957;28;20291;-66
2022/12/23 14:27:36;;;;;;;9.57;6.37;;;;;;;7.57;95.56;100417.78;6115574;28;20235;-67
2022/12/23 14:30:58;;;;;;;14.13;10.10;;;;;;;7.72;94.23;100404.91;6110829;28;20261;-66
2022/12/23 14:34:27;;;;;;;13.67;8.13;;;;;;;7.69;93.71;100399.81;6112631;28;21239;-66
2022/12/23 14:38:08;;;;;;;12.27;8.50;;;;;;;7.70;93.99;100402.34;6120414;28;20240;-66
2022/12/23 14:41:39;;;;;;;9.70;7.40;;;;;;;7.73;93.71;100404.81;6113760;28;20319;-66
2022/12/23 14:45:34;;;;;;;8.03;6.10;;;;;;;7.61;93.77;100399.63;6125766;28;20246;-66
2022/12/23 14:49:22;;;;;;;10.20;7.33;;;;;;;7.59;94.74;100394.38;6111707;28;20325;-67
2022/12/23 14:52:49;;;;;;;9.17;6.33;;;;;;;7.68;94.70;100404.31;6124484;28;20236;-67
2022/12/23 14:56:12;;;;;;;17.00;10.70;;;;;;;7.59;94.91;100410.47;6116536;28;20232;-66
2022/12/23 14:59:40;;;;;;;10.57;7.97;;;;;;;7.46;94.42;100411.63;6116308;28;20329;-65
2022/12/23 15:03:03;;;;;;;11.93;9.23;;;;;;;7.52;94.56;100420.00;6106298;28;20233;-67
2022/12/23 15:06:32;;;;;;;13.63;9.20;;;;;;;7.28;96.28;100408.63;6123728;28;20228;-66
2022/12/23 15:09:57;;;;;;;14.77;8.97;;;;;;;7.28;96.33;100412.16;6114843;28;20255;-66
2022/12/23 15:13:19;;;;;;;10.07;8.03;;;;;;;7.24;96.15;100416.06;6114485;28;20235;-67
2022/12/23 15:16:43;;;;;;;11.53;9.90;;;;;;;7.26;96.91;100415.94;6127256;28;21417;-67
2022/12/23 15:20:14;;;;;;;15.87;10.60;;;;;;;7.28;96.24;100420.19;6120420;28;20314;-66
2022/12/23 15:23:35;;;;;;;13.30;10.57;;;;;;;7.33;96.12;100422.50;6108646;28;20660;-67
2022/12/23 15:26:56;;;;;;;13.40;8.57;;;;;;;7.50;95.94;100416.59;6119706;28;20240;-66
2022/12/23 15:30:18;;;;;;;13.80;9.33;;;;;;;7.42;95.81;100407.50;6117162;28;20240;-66
2022/12/23 15:33:38;;;;;;;10.83;8.40;;;;;;;7.10;95.98;100405.66;6105860;28;20247;-66
2022/12/23 15:37:00;;;;;;;11.23;8.80;;;;;;;7.10;96.88;100411.00;6132168;28;20232;-65
2022/12/23 15:40:26;;;;;;;12.03;8.97;;;;;;;7.17;97.01;100406.84;6119779;28;20232;-65
2022/12/23 15:43:47;;;;;;;10.93;9.23;;;;;;;7.23;95.90;100406.34;6102778;28;20231;-66
2022/12/23 15:47:23;;;;;;;9.13;6.83;;;;;;;7.29;95.37;100399.63;6121507;28;20236;-66
2022/12/23 15:50:45;;;;;;;13.40;8.23;;;;;;;7.25;95.65;100395.50;6112241;28;20705;-66
2022/12/23 15:54:14;;;;;;;12.17;8.67;;;;;;;7.35;95.07;100401.78;6111442;28;20231;-65
2022/12/23 15:57:35;;;;;;;10.17;8.77;;;;;;;7.42;95.37;100394.94;6116290;28;20520;-67
2022/12/23 16:00:58;;;;;;;10.73;8.80;;;;;;;7.44;94.18;100401.03;6104285;28;20523;-66
2022/12/23 16:04:24;;;;;;;12.00;9.33;;;;;;;7.40;93.86;100396.91;6111674;28;20243;-64
2022/12/23 16:07:45;;;;;;;10.97;8.43;;;;;;;7.42;94.68;100394.09;6122613;28;20224;-65
2022/12/23 16:11:13;;;;;;;9.73;7.10;;;;;;;7.42;94.72;100388.72;6115641;28;20228;-66
2022/12/23 16:14:37;;;;;;;12.30;8.43;;;;;;;7.28;94.11;100388.03;6118298;28;20242;-66